createdAt,value
2019-01-19T20:54:58.620Z,100919.87
2019-01-19T20:57:26.910Z,100918.17
2019-01-19T20:59:55.156Z,100919.12
2019-01-19T21:02:23.495Z,100917.52
2019-01-19T21:04:51.754Z,100917.77
2019-01-19T21:07:20.357Z,100923.27
2019-01-19T21:09:48.740Z,100921.42
2019-01-19T21:12:17.525Z,100913.86
2019-01-19T21:14:45.767Z,100921.89
2019-01-19T21:17:14.064Z,100913.32
2019-01-19T21:19:42.311Z,100914.28
2019-01-19T21:22:10.564Z,100915.59
2019-01-19T21:24:38.925Z,100913.05
2019-01-19T21:27:07.326Z,100914.26
2019-01-19T21:29:35.622Z,100909.89
2019-01-19T21:32:04.196Z,100910.28
2019-01-19T21:34:32.528Z,100907.81
2019-01-19T21:37:00.773Z,100909.51
2019-01-19T21:39:29.077Z,100915.35
2019-01-19T21:41:57.327Z,100913.54
2019-01-19T21:44:25.629Z,100915.88
2019-01-19T21:46:54.210Z,100910.16
2019-01-19T21:49:22.901Z,100912.59
2019-01-19T21:51:51.199Z,100905.31
2019-01-19T21:54:19.499Z,100913.20
2019-01-19T21:56:47.792Z,100906.61
2019-01-19T21:59:16.049Z,100910.81
2019-01-19T22:01:44.595Z,100908.52
2019-01-19T22:04:13.099Z,100907.52
2019-01-19T22:06:41.460Z,100904.44
2019-01-19T22:09:09.755Z,100903.53
2019-01-19T22:11:38.292Z,100904.44
2019-01-19T22:14:06.548Z,100905.44
2019-01-19T22:16:34.857Z,100907.95
2019-01-19T22:19:04.188Z,100906.34
2019-01-19T22:21:32.736Z,100908.86
2019-01-19T22:24:01.023Z,100903.88
2019-01-19T22:26:29.539Z,100902.48
2019-01-19T22:28:57.947Z,100907.30
2019-01-19T22:31:26.187Z,100899.59
2019-01-19T22:33:54.479Z,100904.21
2019-01-19T22:36:22.729Z,100906.81
2019-01-19T22:38:51.022Z,100899.72
2019-01-19T22:41:19.266Z,100896.94
2019-01-19T22:43:47.531Z,100901.13
2019-01-19T22:46:15.991Z,100905.63
2019-01-19T22:48:44.246Z,100896.36
2019-01-19T22:51:12.549Z,100893.47
2019-01-19T22:53:40.837Z,100894.16
2019-01-19T22:56:09.095Z,100892.47
2019-01-19T22:58:37.763Z,100891.95
2019-01-19T23:01:24.407Z,100892.95
2019-01-19T23:03:52.716Z,100886.48
2019-01-19T23:06:20.976Z,100895.06
2019-01-19T23:08:49.266Z,100891.20
2019-01-19T23:11:17.515Z,100890.11
2019-01-19T23:13:45.803Z,100888.63
2019-01-19T23:16:14.092Z,100886.81
2019-01-19T23:18:42.355Z,100889.92
2019-01-19T23:21:10.624Z,100889.92
2019-01-19T23:23:38.928Z,100894.69
2019-01-19T23:26:07.249Z,100889.02
2019-01-19T23:28:35.545Z,100889.02
2019-01-19T23:31:04.161Z,100889.41
2019-01-19T23:33:32.410Z,100886.23
2019-01-19T23:36:00.700Z,100886.54
2019-01-19T23:38:28.958Z,100884.94
2019-01-19T23:40:57.248Z,100885.54
2019-01-19T23:43:25.495Z,100883.42
2019-01-19T23:45:53.749Z,100881.73
2019-01-19T23:48:22.063Z,100883.42
2019-01-19T23:50:50.342Z,100884.23
2019-01-19T23:53:18.696Z,100882.36
2019-01-19T23:55:46.984Z,100880.64
2019-01-19T23:58:15.247Z,100879.25
